Time;durP1;ratioP1;P1;durP2;ratioP2;P2;SDS_P1;SDS_P2;PMS_P1;PMS_P2;Temp;Humidity;BMP_temperature;BMP_pressure;BME280_temperature;BME280_humidity;BME280_pressure;Samples;Min_cycle;Max_cycle;Signal;HPM_P1;HPM_P2
2021/10/04 00:01:13;;;;;;;53.25;25.25;;;;;;;7.10;64.86;101697.22;5047585;28;20082;-57
2021/10/04 00:03:39;;;;;;;53.75;26.85;;;;;;;7.10;64.76;101691.03;5047055;28;20039;-57
2021/10/04 00:06:08;;;;;;;52.28;25.55;;;;;;;7.03;64.81;101693.94;5049030;28;20060;-60
2021/10/04 00:08:34;;;;;;;52.13;25.63;;;;;;;6.99;64.84;101697.63;5048606;28;20053;-55
2021/10/04 00:10:59;;;;;;;54.22;27.08;;;;;;;7.03;64.32;101701.03;5048234;28;20109;-57
2021/10/04 00:13:25;;;;;;;48.53;25.52;;;;;;;6.94;65.22;101702.22;5028256;28;20025;-59
2021/10/04 00:15:51;;;;;;;50.13;26.02;;;;;;;6.88;65.12;101697.13;5050701;28;20044;-54
2021/10/04 00:18:17;;;;;;;50.22;25.42;;;;;;;6.88;65.29;101705.13;5050329;28;20040;-57
2021/10/04 00:20:42;;;;;;;48.65;26.98;;;;;;;6.85;65.53;101705.22;5049861;28;20426;-55
2021/10/04 00:23:08;;;;;;;49.78;25.25;;;;;;;6.82;65.65;101714.19;5050931;28;20032;-60
2021/10/04 00:25:34;;;;;;;53.92;24.90;;;;;;;6.80;65.51;101709.84;5035424;28;20363;-59
2021/10/04 00:27:59;;;;;;;57.65;24.92;;;;;;;6.77;65.60;101710.81;5030448;28;20036;-54
2021/10/04 00:30:25;;;;;;;53.33;24.08;;;;;;;6.74;65.77;101711.78;5029761;28;20037;-59
2021/10/04 00:32:52;;;;;;;50.42;24.38;;;;;;;6.75;65.73;101717.97;5030343;28;20449;-55
2021/10/04 00:35:20;;;;;;;51.42;23.83;;;;;;;6.71;65.96;101716.34;5030432;28;20041;-57
2021/10/04 00:37:47;;;;;;;49.97;24.35;;;;;;;6.66;65.94;101713.84;5038790;28;20041;-57
2021/10/04 00:40:16;;;;;;;49.78;24.98;;;;;;;6.73;65.89;101715.34;5031071;28;20033;-56
2021/10/04 00:42:41;;;;;;;45.95;24.02;;;;;;;6.65;65.63;101706.78;5029789;28;20052;-54
2021/10/04 00:45:09;;;;;;;52.00;25.75;;;;;;;6.46;65.87;101682.59;5030686;28;20489;-55
2021/10/04 00:47:35;;;;;;;44.33;23.55;;;;;;;6.58;66.21;101705.25;5030282;28;20033;-58
2021/10/04 00:50:01;;;;;;;46.80;23.58;;;;;;;6.59;65.46;101713.16;5031013;28;20034;-58
2021/10/04 00:52:26;;;;;;;48.55;24.35;;;;;;;6.65;65.90;101713.91;5028871;28;20092;-58
2021/10/04 00:54:52;;;;;;;51.13;24.65;;;;;;;6.57;66.04;101699.03;5030507;28;20068;-57
2021/10/04 00:57:18;;;;;;;51.25;24.20;;;;;;;6.62;66.23;101717.53;5033284;28;20110;-57
2021/10/04 00:59:44;;;;;;;46.95;24.27;;;;;;;6.60;65.89;101708.72;5032373;28;20184;-57
2021/10/04 01:02:10;;;;;;;44.28;23.40;;;;;;;6.58;65.97;101705.25;5034811;28;20120;-63
2021/10/04 01:04:35;;;;;;;51.95;24.23;;;;;;;6.57;66.24;101707.03;5034302;28;20033;-58
2021/10/04 01:07:01;;;;;;;49.97;23.83;;;;;;;6.59;65.64;101699.00;5033575;28;20026;-54
2021/10/04 01:09:27;;;;;;;47.00;23.13;;;;;;;6.50;66.06;101691.31;5032139;28;20106;-59
2021/10/04 01:11:55;;;;;;;50.88;24.48;;;;;;;6.64;65.36;101712.16;5033529;28;20048;-58
2021/10/04 01:14:21;;;;;;;52.00;23.70;;;;;;;6.57;66.16;101719.47;5034080;28;20371;-55
2021/10/04 01:16:47;;;;;;;45.70;23.05;;;;;;;6.53;65.92;101713.38;5052136;28;20071;-57
2021/10/04 01:19:13;;;;;;;47.63;22.35;;;;;;;6.53;66.13;101712.53;5053196;28;20032;-57
2021/10/04 01:21:39;;;;;;;49.75;23.30;;;;;;;6.56;65.93;101712.41;5053244;28;20029;-54
2021/10/04 01:24:06;;;;;;;47.95;23.77;;;;;;;6.60;65.86;101716.72;5053127;28;20447;-55
2021/10/04 01:26:32;;;;;;;46.28;22.80;;;;;;;6.62;65.81;101717.53;5046897;28;20036;-59
2021/10/04 01:28:58;;;;;;;49.40;22.75;;;;;;;6.59;65.78;101707.84;5053219;28;20025;-55
2021/10/04 01:31:24;;;;;;;49.33;23.25;;;;;;;6.64;65.63;101718.34;5053178;28;20056;-57
2021/10/04 01:33:54;;;;;;;45.33;22.42;;;;;;;6.71;65.40;101719.88;5052914;28;20462;-56
2021/10/04 01:36:21;;;;;;;46.00;23.08;;;;;;;6.59;65.49;101709.66;5053308;28;20032;-56
2021/10/04 01:38:47;;;;;;;44.72;22.02;;;;;;;6.62;65.46;101722.84;5044911;28;20037;-53
2021/10/04 01:41:13;;;;;;;43.45;22.05;;;;;;;6.60;65.73;101719.38;5032507;28;20022;-60
2021/10/04 01:43:39;;;;;;;49.47;22.10;;;;;;;6.56;65.34;101723.06;5033501;28;20037;-59
2021/10/04 01:46:05;;;;;;;43.83;21.90;;;;;;;6.53;65.62;101726.69;5033444;28;20033;-59
2021/10/04 01:48:30;;;;;;;40.83;20.48;;;;;;;6.51;65.57;101731.19;5032795;28;20030;-56
2021/10/04 01:50:56;;;;;;;42.20;21.30;;;;;;;6.49;65.68;101732.16;5034451;28;20044;-57
2021/10/04 01:53:22;;;;;;;39.75;21.08;;;;;;;6.51;65.45;101736.50;5052835;28;20029;-57
2021/10/04 01:55:47;;;;;;;47.97;21.50;;;;;;;6.49;65.46;101732.16;5052612;28;20477;-57
2021/10/04 01:58:13;;;;;;;42.35;20.52;;;;;;;6.47;65.64;101733.06;5050518;28;20035;-60
2021/10/04 02:00:39;;;;;;;43.63;21.15;;;;;;;6.45;65.81;101734.06;5052843;28;20047;-58
2021/10/04 02:03:05;;;;;;;39.92;20.75;;;;;;;6.43;66.02;101735.91;5050886;28;20025;-58
2021/10/04 02:05:32;;;;;;;41.47;21.50;;;;;;;6.39;66.00;101727.13;5052236;28;20476;-58
2021/10/04 02:07:58;;;;;;;43.20;21.23;;;;;;;6.43;66.19;101734.09;5051907;28;20049;-54
2021/10/04 02:10:27;;;;;;;42.72;20.73;;;;;;;6.46;65.59;101734.00;5052460;28;20044;-58
2021/10/04 02:12:55;;;;;;;40.38;20.15;;;;;;;6.50;65.36;101734.78;5052304;28;20489;-58
2021/10/04 02:15:20;;;;;;;38.53;19.77;;;;;;;6.49;65.40;101730.38;5050349;28;20026;-59
2021/10/04 02:17:46;;;;;;;38.60;19.45;;;;;;;6.51;64.93;101746.28;5033668;28;20056;-59
2021/10/04 02:20:15;;;;;;;37.80;19.50;;;;;;;6.52;64.80;101737.41;5032680;28;20036;-57
2021/10/04 02:22:41;;;;;;;36.38;18.45;;;;;;;6.28;65.13;101700.03;5032729;28;20029;-55
2021/10/04 02:25:08;;;;;;;36.72;18.60;;;;;;;6.47;65.41;101742.84;5032393;28;20025;-55
2021/10/04 02:27:33;;;;;;;36.50;19.98;;;;;;;6.45;64.96;101747.38;5031792;28;20078;-60
2021/10/04 02:29:59;;;;;;;38.05;18.63;;;;;;;6.44;65.01;101737.66;5048587;28;20106;-56
2021/10/04 02:32:24;;;;;;;39.88;19.65;;;;;;;6.35;64.63;101719.28;5052193;28;20098;-58
2021/10/04 02:34:49;;;;;;;35.58;17.67;;;;;;;6.41;64.94;101738.59;5048939;28;20029;-59
2021/10/04 02:37:15;;;;;;;39.50;19.40;;;;;;;6.39;64.95;101729.78;5051806;28;20044;-59
2021/10/04 02:39:41;;;;;;;34.72;18.27;;;;;;;6.41;64.82;101741.25;5052134;28;20032;-56
2021/10/04 02:42:06;;;;;;;37.50;18.75;;;;;;;6.35;64.65;101738.81;5047238;28;20362;-57
2021/10/04 02:44:32;;;;;;;32.55;17.42;;;;;;;6.36;64.64;101752.97;5051392;28;20059;-57
2021/10/04 02:46:58;;;;;;;32.80;17.20;;;;;;;6.34;64.95;101737.06;5051348;28;20033;-53
2021/10/04 02:49:24;;;;;;;30.65;17.63;;;;;;;6.33;64.44;101740.66;5051701;28;20389;-55
2021/10/04 02:51:49;;;;;;;35.13;18.08;;;;;;;6.34;64.73;101734.41;5051565;28;20037;-57
2021/10/04 02:54:15;;;;;;;39.83;18.17;;;;;;;6.39;64.58;101736.91;5040448;28;20033;-57
2021/10/04 02:56:40;;;;;;;33.00;17.08;;;;;;;6.39;64.50;101745.75;5031474;28;20029;-57
2021/10/04 02:59:06;;;;;;;32.95;17.85;;;;;;;6.43;64.07;101743.88;5031753;28;20033;-58
2021/10/04 03:01:31;;;;;;;31.92;16.85;;;;;;;6.44;64.43;101742.97;5031771;28;20385;-58
2021/10/04 03:03:57;;;;;;;33.25;16.27;;;;;;;6.47;63.97;101743.72;5031469;28;20175;-59
2021/10/04 03:06:22;;;;;;;36.05;17.63;;;;;;;6.51;64.25;101736.50;5031917;28;20045;-57
2021/10/04 03:08:48;;;;;;;33.60;16.55;;;;;;;6.55;64.13;101732.81;5031294;28;20058;-57
2021/10/04 03:11:13;;;;;;;32.30;16.95;;;;;;;6.60;63.30;101741.53;5031226;28;20037;-55
2021/10/04 03:13:39;;;;;;;30.13;16.10;;;;;;;6.63;64.00;101745.88;5032695;28;20520;-58
2021/10/04 03:16:04;;;;;;;34.08;16.98;;;;;;;6.67;63.40;101742.19;5030949;28;20029;-58
2021/10/04 03:18:29;;;;;;;31.85;15.85;;;;;;;6.72;63.57;101734.06;5031766;28;20021;-59
2021/10/04 03:20:55;;;;;;;31.23;16.40;;;;;;;6.75;62.93;101729.50;5049571;28;20063;-53
2021/10/04 03:23:20;;;;;;;29.15;17.10;;;;;;;6.83;63.23;101736.34;5049832;28;20465;-57
2021/10/04 03:25:46;;;;;;;31.88;16.38;;;;;;;6.84;63.14;101735.44;5051538;28;20128;-55
2021/10/04 03:28:12;;;;;;;31.75;16.75;;;;;;;6.87;62.87;101738.88;5050938;28;20039;-56
2021/10/04 03:30:37;;;;;;;32.58;15.98;;;;;;;6.85;62.61;101730.03;5048754;28;20022;-54
2021/10/04 03:33:04;;;;;;;41.28;15.73;;;;;;;6.92;62.58;101744.03;5032542;28;20401;-59
2021/10/04 03:35:30;;;;;;;33.47;16.08;;;;;;;6.95;62.23;101746.56;5030871;28;20422;-57
2021/10/04 03:37:56;;;;;;;31.13;16.00;;;;;;;6.80;62.24;101721.34;5030520;28;20127;-60
2021/10/04 03:40:21;;;;;;;30.40;15.45;;;;;;;7.01;61.86;101750.81;5031173;28;20030;-58
2021/10/04 03:42:47;;;;;;;32.50;16.27;;;;;;;7.03;61.74;101749.88;5032113;28;20816;-57
2021/10/04 03:45:14;;;;;;;26.90;15.05;;;;;;;7.04;61.95;101762.25;5031015;28;20083;-59
2021/10/04 03:47:40;;;;;;;32.45;16.40;;;;;;;7.00;62.14;101747.31;5030968;28;20030;-59
2021/10/04 03:50:08;;;;;;;30.42;15.50;;;;;;;7.06;62.16;101761.31;5031067;28;20033;-59
2021/10/04 03:52:34;;;;;;;31.42;14.95;;;;;;;6.98;62.26;101746.47;5031162;28;20021;-59
2021/10/04 03:55:04;;;;;;;30.55;15.90;;;;;;;7.11;62.26;101759.38;5017741;28;20460;-60
2021/10/04 03:57:29;;;;;;;28.77;15.20;;;;;;;7.17;61.85;101745.81;5031498;28;20048;-58
2021/10/04 03:59:55;;;;;;;27.77;14.23;;;;;;;7.24;61.57;101760.69;5031414;28;20041;-59
2021/10/04 04:02:20;;;;;;;32.83;15.98;;;;;;;7.33;60.77;101754.13;5031027;28;20095;-61
2021/10/04 04:04:46;;;;;;;30.88;15.27;;;;;;;7.41;60.67;101746.75;5032018;28;20029;-57
2021/10/04 04:07:11;;;;;;;27.48;13.65;;;;;;;7.50;60.46;101753.53;5031005;28;20032;-58
2021/10/04 04:09:37;;;;;;;29.58;14.57;;;;;;;7.59;60.27;101758.53;5031005;28;20156;-59
2021/10/04 04:12:03;;;;;;;28.60;13.95;;;;;;;7.70;60.18;101751.91;5031035;28;20116;-58
2021/10/04 04:14:28;;;;;;;28.17;14.70;;;;;;;7.77;59.66;101748.09;5030978;28;20108;-58
2021/10/04 04:16:54;;;;;;;28.05;15.07;;;;;;;7.72;59.67;101715.41;5030881;28;20116;-61
2021/10/04 04:19:19;;;;;;;26.52;13.45;;;;;;;8.05;59.33;101761.22;5030415;28;20416;-61
2021/10/04 04:21:45;;;;;;;30.13;14.32;;;;;;;8.25;58.84;101761.41;5049934;28;20063;-55
2021/10/04 04:24:11;;;;;;;26.10;13.93;;;;;;;8.50;57.42;101750.63;5050866;28;20032;-56
2021/10/04 04:26:37;;;;;;;26.10;13.20;;;;;;;8.67;56.60;101762.41;5049621;28;20025;-56
2021/10/04 04:29:03;;;;;;;23.15;13.45;;;;;;;8.75;55.86;101766.50;5050850;28;20090;-56
2021/10/04 04:31:29;;;;;;;28.67;14.90;;;;;;;8.85;55.96;101766.09;5051608;28;20418;-57
2021/10/04 04:33:55;;;;;;;29.08;14.05;;;;;;;8.95;55.83;101766.59;5033729;28;20030;-57
2021/10/04 04:36:20;;;;;;;27.25;13.13;;;;;;;9.05;55.63;101763.44;5034484;28;20037;-58
2021/10/04 04:38:45;;;;;;;26.25;14.05;;;;;;;9.34;54.73;101769.31;5033926;28;20111;-55
2021/10/04 04:41:11;;;;;;;24.92;13.75;;;;;;;10.76;51.34;101762.78;5033223;28;20124;-59
2021/10/04 04:43:38;;;;;;;26.25;13.75;;;;;;;12.96;45.56;101757.13;5034503;28;20116;-59
2021/10/04 04:46:03;;;;;;;24.58;14.02;;;;;;;14.76;41.13;101760.16;5035859;28;20492;-58
2021/10/04 04:48:29;;;;;;;24.60;13.13;;;;;;;16.21;37.81;101756.38;5033168;28;20029;-56
2021/10/04 04:50:54;;;;;;;27.02;14.18;;;;;;;17.43;35.30;101753.50;5034412;28;20037;-56
2021/10/04 04:53:20;;;;;;;27.42;15.07;;;;;;;18.40;33.23;101752.09;5033213;28;20493;-58
2021/10/04 04:55:46;;;;;;;27.08;13.93;;;;;;;19.39;31.40;101761.84;5033633;28;20037;-59
2021/10/04 04:58:11;;;;;;;25.55;13.98;;;;;;;20.25;29.97;101748.88;5045547;28;20116;-58
2021/10/04 05:00:36;;;;;;;26.25;14.23;;;;;;;21.14;28.45;101763.41;5054387;28;20059;-58
2021/10/04 05:03:02;;;;;;;21.45;13.82;;;;;;;21.69;27.27;101735.44;5053868;28;20032;-58
2021/10/04 05:05:27;;;;;;;26.15;14.23;;;;;;;22.61;25.89;101764.59;5053849;28;20025;-60
2021/10/04 05:07:53;;;;;;;22.50;14.40;;;;;;;23.18;24.99;101766.97;5052684;28;20057;-59
2021/10/04 05:10:18;;;;;;;27.20;14.07;;;;;;;23.44;24.05;101748.91;5042434;28;20159;-62
2021/10/04 05:12:44;;;;;;;23.80;13.82;;;;;;;24.08;23.22;101773.13;5032712;28;20526;-60
2021/10/04 05:15:10;;;;;;;23.27;14.32;;;;;;;24.57;22.55;101774.25;5032649;28;20032;-61
2021/10/04 05:17:36;;;;;;;19.65;13.93;;;;;;;24.98;21.97;101779.81;5033875;28;20069;-60
2021/10/04 05:20:04;;;;;;;20.67;13.02;;;;;;;25.42;22.10;101769.47;5034117;28;20441;-59
2021/10/04 05:22:30;;;;;;;17.80;13.27;;;;;;;25.64;20.70;101782.47;5038723;28;20040;-61
2021/10/04 05:24:55;;;;;;;18.25;13.23;;;;;;;25.88;20.33;101763.34;5053881;28;20033;-60
2021/10/04 05:27:21;;;;;;;24.85;14.30;;;;;;;26.29;20.03;101770.56;5052750;28;20033;-62
2021/10/04 05:29:46;;;;;;;19.25;14.02;;;;;;;26.75;19.02;101767.81;5053855;28;20037;-63
2021/10/04 05:32:12;;;;;;;17.60;13.52;;;;;;;27.14;18.81;101773.34;5053417;28;20052;-62
2021/10/04 05:34:37;;;;;;;19.40;13.80;;;;;;;27.55;18.37;101774.84;5049995;28;20703;-62
2021/10/04 05:37:03;;;;;;;19.08;13.32;;;;;;;28.03;17.66;101777.19;5053428;28;20303;-59
2021/10/04 05:39:28;;;;;;;19.15;12.45;;;;;;;28.46;17.22;101769.03;5052940;28;20036;-60
2021/10/04 05:41:54;;;;;;;16.45;12.35;;;;;;;28.70;16.99;101774.34;5052378;28;20037;-61
2021/10/04 05:44:19;;;;;;;18.83;12.98;;;;;;;29.12;16.26;101774.50;5052016;28;20039;-57
2021/10/04 05:46:45;;;;;;;16.98;12.45;;;;;;;29.64;16.01;101775.94;5051377;28;20460;-59
2021/10/04 05:49:10;;;;;;;16.33;12.85;;;;;;;29.87;15.47;101774.78;5052500;28;20048;-61
2021/10/04 05:51:36;;;;;;;17.45;12.15;;;;;;;30.03;15.20;101781.06;5053204;28;20032;-60
2021/10/04 05:54:01;;;;;;;15.35;12.13;;;;;;;30.08;15.32;101771.09;5037425;28;20043;-57
2021/10/04 05:56:27;;;;;;;13.55;11.48;;;;;;;30.46;14.98;101769.72;5033556;28;20025;-61
2021/10/04 05:58:52;;;;;;;16.33;11.80;;;;;;;30.97;14.16;101772.97;5039619;28;20071;-60
2021/10/04 06:01:18;;;;;;;15.07;11.40;;;;;;;31.22;13.86;101777.88;5041663;28;20021;-61
2021/10/04 06:03:43;;;;;;;12.65;11.35;;;;;;;31.53;13.83;101773.53;5041807;28;20020;-60
2021/10/04 06:06:09;;;;;;;15.13;11.38;;;;;;;31.84;13.27;101787.75;5040547;28;20096;-59
2021/10/04 06:08:34;;;;;;;13.82;11.27;;;;;;;32.28;12.68;101774.09;5038429;28;20057;-60
2021/10/04 06:11:00;;;;;;;13.32;11.32;;;;;;;32.79;12.54;101759.28;5042153;28;20037;-60
2021/10/04 06:13:25;;;;;;;17.17;12.00;;;;;;;33.67;11.84;101779.81;5041185;28;20026;-60
2021/10/04 06:15:51;;;;;;;13.10;10.90;;;;;;;34.19;11.19;101771.91;5039906;28;20029;-61
2021/10/04 06:18:18;;;;;;;12.60;11.30;;;;;;;34.42;11.26;101775.84;5041728;28;20032;-60
2021/10/04 06:20:43;;;;;;;13.80;10.40;;;;;;;34.52;10.87;101780.03;5040720;28;20040;-61
2021/10/04 06:23:09;;;;;;;11.60;10.43;;;;;;;34.52;10.93;101785.59;5040898;28;20033;-62
2021/10/04 06:25:36;;;;;;;13.02;10.75;;;;;;;34.33;10.89;101757.81;5039467;28;20064;-61
2021/10/04 06:28:01;;;;;;;17.20;11.55;;;;;;;34.58;10.97;101784.66;5037231;28;20033;-54
2021/10/04 06:30:27;;;;;;;14.27;10.30;;;;;;;34.62;11.01;101770.03;5043205;28;20044;-59
2021/10/04 06:32:53;;;;;;;14.00;11.25;;;;;;;34.66;10.80;101775.13;5043873;28;20112;-62
2021/10/04 06:35:18;;;;;;;14.18;11.48;;;;;;;34.85;10.66;101779.50;5051384;28;20029;-64
2021/10/04 06:37:45;;;;;;;14.70;11.73;;;;;;;35.12;10.78;101773.50;5047090;28;20048;-61
2021/10/04 06:40:12;;;;;;;13.75;11.05;;;;;;;35.50;10.11;101785.22;5047919;28;20176;-64
2021/10/04 06:42:38;;;;;;;12.13;10.77;;;;;;;35.71;9.96;101785.69;5040973;28;20033;-62
2021/10/04 06:45:04;;;;;;;15.63;11.60;;;;;;;35.96;9.68;101784.53;5052232;28;20112;-62
2021/10/04 06:47:29;;;;;;;13.27;10.95;;;;;;;36.36;9.81;101778.06;5038809;28;20053;-64
2021/10/04 06:49:55;;;;;;;11.63;10.50;;;;;;;36.80;9.52;101777.47;5040105;28;20084;-61
2021/10/04 06:52:21;;;;;;;13.82;11.68;;;;;;;37.03;8.75;101765.28;5040965;28;20020;-63
2021/10/04 06:54:47;;;;;;;12.70;10.45;;;;;;;37.24;9.13;101785.16;5041662;28;20029;-62
2021/10/04 06:57:12;;;;;;;12.95;11.65;;;;;;;37.09;9.20;101777.41;5041198;28;20060;-62
2021/10/04 06:59:38;;;;;;;14.40;11.55;;;;;;;37.02;8.92;101777.56;5041273;28;20811;-65
2021/10/04 07:02:04;;;;;;;12.52;11.23;;;;;;;36.96;8.65;101784.16;5042850;28;20045;-62
2021/10/04 07:04:29;;;;;;;15.23;10.85;;;;;;;37.30;8.15;101789.69;5040388;28;20037;-62
2021/10/04 07:06:55;;;;;;;12.40;11.00;;;;;;;37.74;8.14;101779.69;5040437;28;20195;-61
2021/10/04 07:09:21;;;;;;;11.23;10.13;;;;;;;37.77;8.21;101787.56;5031485;28;20407;-61
2021/10/04 07:11:46;;;;;;;12.10;10.90;;;;;;;37.84;8.57;101788.19;5030485;28;20037;-61
2021/10/04 07:14:12;;;;;;;13.40;11.63;;;;;;;37.47;8.42;101755.31;5034486;28;20346;-63
2021/10/04 07:16:37;;;;;;;12.27;11.05;;;;;;;37.14;8.70;101780.25;5044345;28;20035;-62
2021/10/04 07:19:03;;;;;;;12.10;10.73;;;;;;;36.85;8.84;101790.66;5042258;28;20488;-64
2021/10/04 07:21:32;;;;;;;11.90;10.73;;;;;;;36.66;9.44;101795.63;5031653;28;20075;-59
2021/10/04 07:23:59;;;;;;;11.82;10.40;;;;;;;36.08;8.86;101790.91;5031814;28;20030;-60
2021/10/04 07:26:25;;;;;;;11.55;10.40;;;;;;;35.62;9.28;101788.00;5035104;28;20102;-61
2021/10/04 07:28:51;;;;;;;11.68;10.57;;;;;;;35.24;9.67;101773.50;5031305;28;20166;-61
2021/10/04 07:31:18;;;;;;;12.18;10.77;;;;;;;35.08;9.96;101788.13;5031969;28;20115;-61
2021/10/04 07:33:44;;;;;;;13.73;11.10;;;;;;;34.82;9.87;101802.22;5031248;28;20116;-62
2021/10/04 07:36:10;;;;;;;12.38;11.15;;;;;;;34.11;10.59;101788.94;5031215;28;20470;-60
2021/10/04 07:38:36;;;;;;;12.50;10.68;;;;;;;33.09;11.67;101802.16;5050067;28;20131;-63
2021/10/04 07:41:03;;;;;;;13.38;11.98;;;;;;;31.03;12.57;101785.94;5051317;28;20035;-61
2021/10/04 07:43:28;;;;;;;15.57;12.00;;;;;;;28.59;15.06;101793.13;5050889;28;20064;-60
2021/10/04 07:45:54;;;;;;;14.45;11.40;;;;;;;26.50;16.94;101784.47;5051519;28;20433;-64
2021/10/04 07:48:19;;;;;;;16.00;11.75;;;;;;;24.56;18.90;101767.94;5049882;28;20025;-62
2021/10/04 07:50:44;;;;;;;14.20;11.73;;;;;;;23.15;20.78;101796.47;5048956;28;20044;-62
2021/10/04 07:53:12;;;;;;;22.90;13.32;;;;;;;21.76;22.07;101793.78;5064063;28;20055;-60
2021/10/04 07:55:39;;;;;;;19.52;12.18;;;;;;;20.47;24.30;101792.16;5068982;28;20028;-62
2021/10/04 07:58:04;;;;;;;15.60;12.57;;;;;;;19.48;25.75;101790.06;5040278;28;20105;-63
2021/10/04 08:00:30;;;;;;;17.73;12.75;;;;;;;18.88;26.77;101791.50;5029038;28;20123;-60
2021/10/04 08:02:55;;;;;;;20.95;15.00;;;;;;;18.49;27.83;101796.56;5046820;28;20029;-59
2021/10/04 08:05:21;;;;;;;27.80;16.65;;;;;;;18.03;28.53;101788.53;5054505;28;20051;-61
2021/10/04 08:07:46;;;;;;;27.10;16.33;;;;;;;17.54;29.58;101785.16;5063167;28;20060;-59
2021/10/04 08:10:12;;;;;;;24.85;16.20;;;;;;;17.36;30.07;101796.47;5054490;28;20028;-61
2021/10/04 08:12:38;;;;;;;28.25;17.48;;;;;;;17.24;30.51;101788.41;5066516;28;20041;-59
2021/10/04 08:15:06;;;;;;;26.40;17.08;;;;;;;17.13;30.59;101800.09;5051747;28;20035;-58
2021/10/04 08:17:32;;;;;;;30.25;17.73;;;;;;;16.85;30.99;101800.31;5060256;28;20040;-63
2021/10/04 08:19:59;;;;;;;25.42;16.80;;;;;;;16.30;31.50;101759.38;5063648;28;20032;-58
2021/10/04 08:22:24;;;;;;;28.10;16.85;;;;;;;16.40;31.88;101803.69;5053259;28;20028;-60
2021/10/04 08:24:50;;;;;;;23.60;16.08;;;;;;;16.32;32.02;101797.94;5066183;28;20021;-61
2021/10/04 08:27:16;;;;;;;30.13;15.50;;;;;;;16.35;31.86;101795.03;5057228;28;20388;-59
2021/10/04 08:29:41;;;;;;;27.80;16.50;;;;;;;16.36;32.20;101794.91;5057116;28;20029;-60
2021/10/04 08:32:07;;;;;;;33.17;18.42;;;;;;;16.32;32.57;101797.94;5062911;28;20043;-59
2021/10/04 08:34:32;;;;;;;30.15;17.23;;;;;;;16.26;32.99;101801.97;5049675;28;20032;-61
2021/10/04 08:36:58;;;;;;;33.25;18.08;;;;;;;15.93;33.18;101784.53;5064868;28;20208;-58
2021/10/04 08:39:24;;;;;;;29.48;17.25;;;;;;;15.87;33.42;101807.41;5047447;28;20465;-61
2021/10/04 08:41:52;;;;;;;26.52;17.05;;;;;;;15.66;33.46;101790.91;5054017;28;20068;-61
2021/10/04 08:44:17;;;;;;;26.17;17.10;;;;;;;15.64;33.53;101809.91;5035821;28;20067;-60
2021/10/04 08:46:45;;;;;;;28.65;17.80;;;;;;;15.64;33.73;101817.16;5066111;28;20029;-59
2021/10/04 08:49:13;;;;;;;28.48;17.33;;;;;;;15.49;34.14;101821.81;5056566;28;20103;-58
2021/10/04 08:51:38;;;;;;;27.02;15.82;;;;;;;15.27;34.22;101820.59;5057243;28;20060;-61
2021/10/04 08:54:06;;;;;;;24.45;14.07;;;;;;;15.17;34.06;101814.09;5057850;28;20064;-57
2021/10/04 08:56:32;;;;;;;25.27;14.18;;;;;;;15.07;34.60;101798.53;5052774;28;20473;-57
2021/10/04 08:58:58;;;;;;;25.98;14.98;;;;;;;15.17;35.13;101814.97;5063766;28;20033;-58
2021/10/04 09:01:24;;;;;;;28.73;15.30;;;;;;;15.14;34.86;101808.91;5057983;28;20036;-59
2021/10/04 09:03:58;;;;;;;25.95;14.65;;;;;;;15.06;34.91;101818.38;5064060;28;20037;-62
2021/10/04 09:06:28;;;;;;;27.00;16.52;;;;;;;14.80;35.69;101816.59;5062652;28;20028;-61
2021/10/04 09:08:56;;;;;;;29.70;16.35;;;;;;;14.67;36.14;101820.06;5054181;28;20049;-61
2021/10/04 09:11:33;;;;;;;32.10;16.20;;;;;;;14.69;35.45;101809.19;5060736;28;20115;-60
2021/10/04 09:14:29;;;;;;;25.95;14.85;;;;;;;14.57;35.41;101818.94;5063160;28;20042;-62
2021/10/04 09:17:11;;;;;;;22.38;12.90;;;;;;;14.46;35.69;101816.94;5038864;28;20085;-61
2021/10/04 09:19:41;;;;;;;20.50;12.07;;;;;;;14.43;36.04;101811.75;5063042;28;20397;-60
2021/10/04 09:22:17;;;;;;;21.65;12.13;;;;;;;14.43;35.30;101815.31;5057856;28;20098;-61
2021/10/04 09:24:58;;;;;;;21.38;12.23;;;;;;;14.14;35.73;101828.84;5068859;28;20501;-59
2021/10/04 09:27:37;;;;;;;20.33;11.55;;;;;;;13.64;36.96;101818.47;5061312;28;20103;-63
2021/10/04 09:30:06;;;;;;;17.60;11.68;;;;;;;13.57;36.67;101805.47;5049084;28;20045;-61
2021/10/04 09:32:41;;;;;;;19.48;12.73;;;;;;;13.56;36.63;101815.38;5067507;28;20048;-64
2021/10/04 09:35:31;;;;;;;22.35;12.48;;;;;;;13.63;36.25;101832.88;5058073;28;20479;-63
2021/10/04 09:38:00;;;;;;;21.95;12.60;;;;;;;13.51;37.36;101817.50;5059222;28;20028;-57
2021/10/04 09:40:35;;;;;;;21.23;13.05;;;;;;;13.65;37.39;101813.97;5067109;28;20542;-55
2021/10/04 09:43:03;;;;;;;20.92;12.70;;;;;;;14.00;37.05;101820.78;5054043;28;20040;-57
2021/10/04 09:45:29;;;;;;;20.83;12.60;;;;;;;14.32;36.20;101826.78;5062825;28;20067;-59
2021/10/04 09:47:55;;;;;;;22.58;13.93;;;;;;;14.50;35.56;101821.16;5064900;28;20029;-60
2021/10/04 09:50:25;;;;;;;25.40;13.52;;;;;;;14.67;35.42;101806.56;5055698;28;20029;-61
2021/10/04 09:52:56;;;;;;;20.88;12.90;;;;;;;14.75;35.28;101809.69;5066827;28;20389;-62
2021/10/04 09:55:32;;;;;;;23.20;13.25;;;;;;;14.83;34.64;101784.91;5058424;28;20063;-58
2021/10/04 09:58:17;;;;;;;22.58;14.43;;;;;;;15.21;34.57;101818.31;5058607;28;20052;-58
2021/10/04 10:00:47;;;;;;;22.70;12.80;;;;;;;14.88;34.77;101809.72;5068070;28;20021;-58
2021/10/04 10:03:14;;;;;;;20.70;12.13;;;;;;;14.84;34.78;101823.50;5059447;28;20040;-55
2021/10/04 10:05:46;;;;;;;21.02;11.15;;;;;;;14.84;34.73;101808.19;5060271;28;20036;-59
2021/10/04 10:08:12;;;;;;;20.65;12.68;;;;;;;14.45;34.94;101794.50;5049679;28;20049;-55
2021/10/04 10:10:43;;;;;;;16.48;11.38;;;;;;;14.44;35.18;101817.03;5068286;28;20054;-60
2021/10/04 10:13:12;;;;;;;18.48;10.73;;;;;;;14.07;35.13;101790.66;5057605;28;20117;-54
2021/10/04 10:15:41;;;;;;;16.65;11.40;;;;;;;14.26;35.20;101802.09;5060644;28;20029;-56
2021/10/04 10:18:12;;;;;;;17.23;11.45;;;;;;;14.44;35.28;101824.28;5054830;28;20166;-54
2021/10/04 10:20:39;;;;;;;20.35;11.63;;;;;;;14.41;35.46;101819.94;5065860;28;20036;-56
2021/10/04 10:23:05;;;;;;;15.48;11.32;;;;;;;14.49;35.34;101811.34;5056661;28;20440;-55
2021/10/04 10:25:32;;;;;;;21.10;10.90;;;;;;;14.72;35.12;101807.19;5061292;28;20017;-53
2021/10/04 10:27:58;;;;;;;19.67;11.43;;;;;;;14.94;34.52;101805.72;5063484;28;20086;-58
2021/10/04 10:30:26;;;;;;;19.48;12.02;;;;;;;15.19;34.17;101809.44;5046478;28;20037;-61
2021/10/04 10:32:53;;;;;;;17.17;11.27;;;;;;;15.32;33.41;101818.44;5044107;28;20025;-57
2021/10/04 10:35:48;;;;;;;17.55;11.88;;;;;;;15.43;33.26;101809.59;5044470;28;20033;-58
2021/10/04 10:38:34;;;;;;;21.10;11.23;;;;;;;14.98;33.57;101804.56;5045398;28;20123;-58
2021/10/04 10:41:18;;;;;;;;;;;;;;;15.32;32.96;101822.97;5037807;28;20111;-59
2021/10/04 10:44:06;;;;;;;14.85;10.13;;;;;;;14.71;33.49;101821.63;5040973;28;19932;-60
2021/10/04 10:47:04;;;;;;;18.35;10.25;;;;;;;14.27;34.60;101809.22;5039386;28;20029;-57
2021/10/04 10:49:57;;;;;;;15.77;10.48;;;;;;;14.04;35.36;101819.63;5042101;28;20053;-60
2021/10/04 10:52:26;;;;;;;16.35;10.70;;;;;;;13.89;35.85;101819.63;5066379;28;20028;-59
2021/10/04 10:54:52;;;;;;;19.30;11.30;;;;;;;13.86;36.33;101802.78;5055047;28;20020;-58
2021/10/04 10:57:24;;;;;;;16.17;11.45;;;;;;;13.95;35.97;101804.91;5061225;28;20039;-59
2021/10/04 11:00:20;;;;;;;19.50;12.15;;;;;;;14.02;35.97;101818.84;5069411;28;20373;-57
2021/10/04 11:02:47;;;;;;;21.30;11.90;;;;;;;14.03;36.11;101813.34;5037734;28;20036;-62
2021/10/04 11:05:47;;;;;;;20.40;12.75;;;;;;;14.43;35.28;101800.97;5058688;28;20029;-60
2021/10/04 11:08:20;;;;;;;16.60;10.52;;;;;;;14.63;35.46;101807.75;5047133;28;20432;-59
2021/10/04 11:10:51;;;;;;;16.33;10.95;;;;;;;14.97;34.36;101802.84;5034825;28;20060;-62
2021/10/04 11:13:23;;;;;;;15.15;10.95;;;;;;;15.17;34.40;101806.88;5057589;28;20104;-56
2021/10/04 11:15:49;;;;;;;16.48;11.25;;;;;;;15.12;33.96;101770.38;5056925;28;20049;-58